sensor_id;sensor_type;location;lat;lon;timestamp;pressure;altitude;pressure_sealevel;temperature;humidity
69566;BME280;56777;55.930;37.524;2024-02-28T00:00:04;102624.34;;;-2.45;76.30
69566;BME280;56777;55.930;37.524;2024-02-28T00:02:30;102646.25;;;-2.32;76.43
69566;BME280;56777;55.930;37.524;2024-02-28T00:04:55;102641.13;;;-2.32;76.86
69566;BME280;56777;55.930;37.524;2024-02-28T00:07:23;102643.69;;;-2.40;76.59
69566;BME280;56777;55.930;37.524;2024-02-28T00:09:49;102627.22;;;-2.34;76.55
69566;BME280;56777;55.930;37.524;2024-02-28T00:12:14;102630.97;;;-2.39;76.85
69566;BME280;56777;55.930;37.524;2024-02-28T00:14:40;102632.03;;;-2.45;77.63
69566;BME280;56777;55.930;37.524;2024-02-28T00:17:06;102639.72;;;-2.45;78.09
69566;BME280;56777;55.930;37.524;2024-02-28T00:19:31;102635.03;;;-2.41;77.50
69566;BME280;56777;55.930;37.524;2024-02-28T00:21:57;102629.19;;;-2.40;77.69
69566;BME280;56777;55.930;37.524;2024-02-28T00:24:25;102638.94;;;-2.53;78.16
69566;BME280;56777;55.930;37.524;2024-02-28T00:26:50;102639.13;;;-2.52;77.61
69566;BME280;56777;55.930;37.524;2024-02-28T00:29:16;102615.03;;;-2.69;78.33
69566;BME280;56777;55.930;37.524;2024-02-28T00:31:41;102627.59;;;-2.64;78.71
69566;BME280;56777;55.930;37.524;2024-02-28T00:34:07;102623.84;;;-2.59;78.32
69566;BME280;56777;55.930;37.524;2024-02-28T00:36:34;102618.69;;;-2.67;79.42
69566;BME280;56777;55.930;37.524;2024-02-28T00:38:59;102610.53;;;-2.63;79.09
69566;BME280;56777;55.930;37.524;2024-02-28T00:41:25;102617.31;;;-2.64;78.65
69566;BME280;56777;55.930;37.524;2024-02-28T00:43:51;102595.38;;;-2.86;79.37
69566;BME280;56777;55.930;37.524;2024-02-28T00:46:19;102624.41;;;-2.70;79.05
69566;BME280;56777;55.930;37.524;2024-02-28T00:48:44;102619.25;;;-2.79;80.40
69566;BME280;56777;55.930;37.524;2024-02-28T00:51:10;102588.72;;;-2.93;79.42
69566;BME280;56777;55.930;37.524;2024-02-28T00:53:35;102609.00;;;-2.79;80.60
69566;BME280;56777;55.930;37.524;2024-02-28T00:56:01;102614.72;;;-2.81;80.55
69566;BME280;56777;55.930;37.524;2024-02-28T00:58:27;102610.78;;;-2.78;80.69
69566;BME280;56777;55.930;37.524;2024-02-28T01:00:55;102611.75;;;-2.68;80.80
69566;BME280;56777;55.930;37.524;2024-02-28T01:03:21;102603.25;;;-2.76;81.18
69566;BME280;56777;55.930;37.524;2024-02-28T01:05:49;102602.78;;;-2.81;81.63
69566;BME280;56777;55.930;37.524;2024-02-28T01:08:15;102613.81;;;-2.82;80.75
69566;BME280;56777;55.930;37.524;2024-02-28T01:10:42;102598.22;;;-2.92;81.61
69566;BME280;56777;55.930;37.524;2024-02-28T01:13:08;102592.34;;;-3.00;81.90
69566;BME280;56777;55.930;37.524;2024-02-28T01:15:33;102597.94;;;-2.86;82.34
69566;BME280;56777;55.930;37.524;2024-02-28T01:17:59;102476.00;;;-3.59;81.97
69566;BME280;56777;55.930;37.524;2024-02-28T01:20:25;102602.66;;;-2.82;82.64
69566;BME280;56777;55.930;37.524;2024-02-28T01:22:50;102602.63;;;-2.91;82.90
69566;BME280;56777;55.930;37.524;2024-02-28T01:25:16;102610.94;;;-2.85;82.00
69566;BME280;56777;55.930;37.524;2024-02-28T01:27:41;102605.44;;;-3.05;82.44
69566;BME280;56777;55.930;37.524;2024-02-28T01:30:08;102565.38;;;-3.21;83.31
69566;BME280;56777;55.930;37.524;2024-02-28T01:32:34;102576.47;;;-3.04;83.32
69566;BME280;56777;55.930;37.524;2024-02-28T01:34:59;102594.16;;;-2.90;83.74
69566;BME280;56777;55.930;37.524;2024-02-28T01:37:25;102607.59;;;-2.84;83.69
69566;BME280;56777;55.930;37.524;2024-02-28T01:39:50;102615.44;;;-2.91;82.69
69566;BME280;56777;55.930;37.524;2024-02-28T01:42:16;102606.50;;;-3.03;83.02
69566;BME280;56777;55.930;37.524;2024-02-28T01:44:48;102624.31;;;-2.96;84.46
69566;BME280;56777;55.930;37.524;2024-02-28T01:47:16;102603.59;;;-3.06;84.60
69566;BME280;56777;55.930;37.524;2024-02-28T01:49:44;102616.41;;;-3.06;84.83
69566;BME280;56777;55.930;37.524;2024-02-28T01:52:11;102558.09;;;-3.33;83.79
69566;BME280;56777;55.930;37.524;2024-02-28T01:54:38;102617.63;;;-3.11;83.80
69566;BME280;56777;55.930;37.524;2024-02-28T01:57:05;102632.44;;;-3.09;84.38
69566;BME280;56777;55.930;37.524;2024-02-28T01:59:31;102619.13;;;-3.13;83.87
69566;BME280;56777;55.930;37.524;2024-02-28T02:01:57;102593.47;;;-3.13;84.23
69566;BME280;56777;55.930;37.524;2024-02-28T02:04:22;102619.44;;;-3.10;84.50
69566;BME280;56777;55.930;37.524;2024-02-28T02:06:48;102622.75;;;-3.11;84.16
69566;BME280;56777;55.930;37.524;2024-02-28T02:09:15;102622.81;;;-3.03;84.71
69566;BME280;56777;55.930;37.524;2024-02-28T02:11:41;102617.50;;;-3.04;84.13
69566;BME280;56777;55.930;37.524;2024-02-28T02:14:06;102621.50;;;-3.15;84.59
69566;BME280;56777;55.930;37.524;2024-02-28T02:16:32;102626.94;;;-3.12;84.40
69566;BME280;56777;55.930;37.524;2024-02-28T02:18:57;102590.72;;;-3.24;84.31
69566;BME280;56777;55.930;37.524;2024-02-28T02:21:26;102627.13;;;-3.10;84.95
69566;BME280;56777;55.930;37.524;2024-02-28T02:23:52;102577.97;;;-3.40;83.76
69566;BME280;56777;55.930;37.524;2024-02-28T02:26:18;102615.34;;;-3.17;83.94
69566;BME280;56777;55.930;37.524;2024-02-28T02:28:44;102616.09;;;-3.09;84.08
69566;BME280;56777;55.930;37.524;2024-02-28T02:31:11;102630.44;;;-3.11;83.13
69566;BME280;56777;55.930;37.524;2024-02-28T02:33:37;102647.53;;;-3.03;83.70
69566;BME280;56777;55.930;37.524;2024-02-28T02:36:02;102636.94;;;-3.06;83.17
69566;BME280;56777;55.930;37.524;2024-02-28T02:38:28;102638.88;;;-3.12;82.75
69566;BME280;56777;55.930;37.524;2024-02-28T02:40:53;102647.69;;;-3.02;83.10
69566;BME280;56777;55.930;37.524;2024-02-28T02:43:19;102650.97;;;-3.11;82.96
69566;BME280;56777;55.930;37.524;2024-02-28T02:45:47;102658.44;;;-2.97;82.77
69566;BME280;56777;55.930;37.524;2024-02-28T02:48:13;102645.06;;;-3.10;83.05
69566;BME280;56777;55.930;37.524;2024-02-28T02:50:39;102639.31;;;-3.17;82.23
69566;BME280;56777;55.930;37.524;2024-02-28T02:53:08;102649.88;;;-3.13;81.86
69566;BME280;56777;55.930;37.524;2024-02-28T02:55:34;102645.94;;;-3.19;82.53
69566;BME280;56777;55.930;37.524;2024-02-28T02:58:00;102628.13;;;-3.26;82.36
69566;BME280;56777;55.930;37.524;2024-02-28T03:00:26;102604.19;;;-3.42;82.13
69566;BME280;56777;55.930;37.524;2024-02-28T03:02:51;102626.56;;;-3.32;82.00
69566;BME280;56777;55.930;37.524;2024-02-28T03:05:17;102648.44;;;-3.27;81.63
69566;BME280;56777;55.930;37.524;2024-02-28T03:07:42;102643.81;;;-3.23;81.38
69566;BME280;56777;55.930;37.524;2024-02-28T03:10:08;102630.59;;;-3.43;81.04
69566;BME280;56777;55.930;37.524;2024-02-28T03:12:35;102663.38;;;-3.32;82.16
69566;BME280;56777;55.930;37.524;2024-02-28T03:15:01;102593.31;;;-3.73;81.95
69566;BME280;56777;55.930;37.524;2024-02-28T03:17:28;102659.09;;;-3.40;82.01
69566;BME280;56777;55.930;37.524;2024-02-28T03:19:54;102663.91;;;-3.43;80.87
69566;BME280;56777;55.930;37.524;2024-02-28T03:22:20;102677.56;;;-3.27;80.35
69566;BME280;56777;55.930;37.524;2024-02-28T03:24:45;102677.09;;;-3.31;80.43
69566;BME280;56777;55.930;37.524;2024-02-28T03:27:11;102668.41;;;-3.41;81.14
69566;BME280;56777;55.930;37.524;2024-02-28T03:29:36;102671.78;;;-3.33;79.92
69566;BME280;56777;55.930;37.524;2024-02-28T03:32:02;102651.50;;;-3.47;81.20
69566;BME280;56777;55.930;37.524;2024-02-28T03:34:29;102680.81;;;-3.36;80.92
69566;BME280;56777;55.930;37.524;2024-02-28T03:36:55;102664.81;;;-3.43;81.03
69566;BME280;56777;55.930;37.524;2024-02-28T03:39:20;102680.31;;;-3.41;79.98
69566;BME280;56777;55.930;37.524;2024-02-28T03:41:46;102682.56;;;-3.44;80.69
69566;BME280;56777;55.930;37.524;2024-02-28T03:44:11;102686.22;;;-3.42;80.10
69566;BME280;56777;55.930;37.524;2024-02-28T03:46:37;102699.94;;;-3.42;80.84
69566;BME280;56777;55.930;37.524;2024-02-28T03:49:02;102684.94;;;-3.54;80.55
69566;BME280;56777;55.930;37.524;2024-02-28T03:51:28;102695.38;;;-3.44;80.66
69566;BME280;56777;55.930;37.524;2024-02-28T03:53:54;102691.00;;;-3.45;80.69
69566;BME280;56777;55.930;37.524;2024-02-28T03:56:24;102645.88;;;-3.76;80.30
69566;BME280;56777;55.930;37.524;2024-02-28T03:58:50;102698.06;;;-3.51;79.92
69566;BME280;56777;55.930;37.524;2024-02-28T04:01:16;102697.75;;;-3.54;80.49
69566;BME280;56777;55.930;37.524;2024-02-28T04:03:41;102706.91;;;-3.56;80.04
69566;BME280;56777;55.930;37.524;2024-02-28T04:06:07;102683.47;;;-3.68;79.84
69566;BME280;56777;55.930;37.524;2024-02-28T04:08:32;102686.41;;;-3.72;80.42
69566;BME280;56777;55.930;37.524;2024-02-28T04:10:58;102702.78;;;-3.63;79.56
69566;BME280;56777;55.930;37.524;2024-02-28T04:13:23;102703.78;;;-3.70;78.92
69566;BME280;56777;55.930;37.524;2024-02-28T04:15:49;102721.38;;;-3.57;79.22
69566;BME280;56777;55.930;37.524;2024-02-28T04:18:14;102724.34;;;-3.61;79.56
69566;BME280;56777;55.930;37.524;2024-02-28T04:20:40;102744.84;;;-3.21;78.80
69566;BME280;56777;55.930;37.524;2024-02-28T04:23:05;102722.53;;;-2.22;73.59
69566;BME280;56777;55.930;37.524;2024-02-28T04:25:31;102744.50;;;-2.08;72.17
69566;BME280;56777;55.930;37.524;2024-02-28T04:27:56;102752.72;;;-1.25;68.37
69566;BME280;56777;55.930;37.524;2024-02-28T04:30:25;102750.25;;;-1.93;69.70
69566;BME280;56777;55.930;37.524;2024-02-28T04:32:50;102745.31;;;-2.34;71.02
69566;BME280;56777;55.930;37.524;2024-02-28T04:35:16;102766.31;;;-1.61;69.37
69566;BME280;56777;55.930;37.524;2024-02-28T04:37:46;102763.75;;;-2.29;70.75
69566;BME280;56777;55.930;37.524;2024-02-28T04:40:12;102769.75;;;-2.70;72.29
69566;BME280;56777;55.930;37.524;2024-02-28T04:42:39;102743.97;;;-2.63;73.96
69566;BME280;56777;55.930;37.524;2024-02-28T04:45:05;102759.78;;;-2.76;73.41
69566;BME280;56777;55.930;37.524;2024-02-28T04:47:31;102765.41;;;-2.72;73.99
69566;BME280;56777;55.930;37.524;2024-02-28T04:49:57;102750.06;;;-2.54;74.02
69566;BME280;56777;55.930;37.524;2024-02-28T04:52:22;102762.72;;;-2.56;74.48
69566;BME280;56777;55.930;37.524;2024-02-28T04:54:50;102684.56;;;-2.84;73.00
69566;BME280;56777;55.930;37.524;2024-02-28T04:57:15;102755.75;;;-2.65;73.45
69566;BME280;56777;55.930;37.524;2024-02-28T04:59:42;102737.59;;;-2.76;74.43
69566;BME280;56777;55.930;37.524;2024-02-28T05:02:08;102761.69;;;-2.49;73.41
69566;BME280;56777;55.930;37.524;2024-02-28T05:04:34;102762.00;;;-2.55;74.04
69566;BME280;56777;55.930;37.524;2024-02-28T05:06:59;102767.09;;;-2.21;73.52
69566;BME280;56777;55.930;37.524;2024-02-28T05:09:25;102776.41;;;-2.39;72.94
69566;BME280;56777;55.930;37.524;2024-02-28T05:11:51;102750.63;;;-2.65;73.30
69566;BME280;56777;55.930;37.524;2024-02-28T05:14:16;102772.72;;;-2.17;72.79
69566;BME280;56777;55.930;37.524;2024-02-28T05:16:42;102756.19;;;-2.36;72.52
69566;BME280;56777;55.930;37.524;2024-02-28T05:19:07;102794.59;;;-2.20;72.22
69566;BME280;56777;55.930;37.524;2024-02-28T05:21:39;102785.00;;;-2.06;72.38
69566;BME280;56777;55.930;37.524;2024-02-28T05:24:06;102792.25;;;-1.93;71.36
69566;BME280;56777;55.930;37.524;2024-02-28T05:26:31;102795.88;;;-2.08;71.53
69566;BME280;56777;55.930;37.524;2024-02-28T05:28:59;102779.53;;;-2.17;70.97
69566;BME280;56777;55.930;37.524;2024-02-28T05:31:25;102778.78;;;-2.08;70.91
69566;BME280;56777;55.930;37.524;2024-02-28T05:33:52;102790.41;;;-2.11;71.93
69566;BME280;56777;55.930;37.524;2024-02-28T05:36:20;102793.69;;;-1.70;70.64
69566;BME280;56777;55.930;37.524;2024-02-28T05:38:46;102783.22;;;-1.72;70.44
69566;BME280;56777;55.930;37.524;2024-02-28T05:41:11;102787.44;;;-1.81;71.18
69566;BME280;56777;55.930;37.524;2024-02-28T05:43:38;102811.38;;;-1.65;70.43
69566;BME280;56777;55.930;37.524;2024-02-28T05:46:03;102800.94;;;-1.66;70.18
69566;BME280;56777;55.930;37.524;2024-02-28T05:48:29;102818.63;;;-1.52;70.24
69566;BME280;56777;55.930;37.524;2024-02-28T05:50:54;102823.19;;;-1.32;69.62
69566;BME280;56777;55.930;37.524;2024-02-28T05:53:20;102803.84;;;-1.46;69.81
69566;BME280;56777;55.930;37.524;2024-02-28T05:55:46;102832.59;;;-1.15;69.04
69566;BME280;56777;55.930;37.524;2024-02-28T05:58:13;102803.69;;;-1.13;69.22
69566;BME280;56777;55.930;37.524;2024-02-28T06:00:39;102818.38;;;-1.03;67.55
69566;BME280;56777;55.930;37.524;2024-02-28T06:03:04;102829.41;;;-1.04;68.83
69566;BME280;56777;55.930;37.524;2024-02-28T06:05:30;102828.97;;;-1.08;69.24
69566;BME280;56777;55.930;37.524;2024-02-28T06:07:56;102827.59;;;-0.87;68.66
69566;BME280;56777;55.930;37.524;2024-02-28T06:10:21;102796.56;;;-0.98;67.91
69566;BME280;56777;55.930;37.524;2024-02-28T06:12:47;102812.63;;;-0.92;68.97
69566;BME280;56777;55.930;37.524;2024-02-28T06:15:12;102784.13;;;-0.84;68.48
69566;BME280;56777;55.930;37.524;2024-02-28T06:17:38;102811.66;;;-0.83;67.79
69566;BME280;56777;55.930;37.524;2024-02-28T06:20:05;102794.91;;;-0.43;67.69
69566;BME280;56777;55.930;37.524;2024-02-28T06:22:31;102798.63;;;0.05;66.49
69566;BME280;56777;55.930;37.524;2024-02-28T06:24:57;102809.97;;;-0.57;67.29
69566;BME280;56777;55.930;37.524;2024-02-28T06:27:22;102806.34;;;0.05;66.38
69566;BME280;56777;55.930;37.524;2024-02-28T06:29:48;102806.69;;;-0.28;66.57
69566;BME280;56777;55.930;37.524;2024-02-28T06:32:14;102789.47;;;-0.10;66.41
69566;BME280;56777;55.930;37.524;2024-02-28T06:34:40;102798.06;;;-0.01;65.78
69566;BME280;56777;55.930;37.524;2024-02-28T06:37:06;102791.38;;;0.01;66.51
69566;BME280;56777;55.930;37.524;2024-02-28T06:39:31;102809.34;;;0.18;66.07
69566;BME280;56777;55.930;37.524;2024-02-28T06:41:57;102782.88;;;0.30;66.56
69566;BME280;56777;55.930;37.524;2024-02-28T06:44:22;102799.75;;;-0.02;66.31
69566;BME280;56777;55.930;37.524;2024-02-28T06:46:48;102786.84;;;-0.02;66.57
69566;BME280;56777;55.930;37.524;2024-02-28T06:49:13;102796.25;;;0.44;66.45
69566;BME280;56777;55.930;37.524;2024-02-28T06:51:39;102799.91;;;0.00;66.11
69566;BME280;56777;55.930;37.524;2024-02-28T06:54:04;102794.00;;;0.20;65.61
69566;BME280;56777;55.930;37.524;2024-02-28T06:56:30;102788.38;;;0.62;65.73
69566;BME280;56777;55.930;37.524;2024-02-28T06:58:56;102740.75;;;0.02;65.86
69566;BME280;56777;55.930;37.524;2024-02-28T07:01:21;102798.22;;;1.04;65.82
69566;BME280;56777;55.930;37.524;2024-02-28T07:03:47;102798.66;;;0.52;66.02
69566;BME280;56777;55.930;37.524;2024-02-28T07:06:12;102786.25;;;0.66;66.18
69566;BME280;56777;55.930;37.524;2024-02-28T07:08:38;102773.00;;;0.72;64.98
69566;BME280;56777;55.930;37.524;2024-02-28T07:11:04;102763.84;;;0.95;64.04
69566;BME280;56777;55.930;37.524;2024-02-28T07:13:29;102780.41;;;1.36;63.39
69566;BME280;56777;55.930;37.524;2024-02-28T07:15:55;102771.84;;;0.98;64.45
69566;BME280;56777;55.930;37.524;2024-02-28T07:18:23;102773.34;;;1.15;64.60
69566;BME280;56777;55.930;37.524;2024-02-28T07:20:51;102770.22;;;1.38;64.52
69566;BME280;56777;55.930;37.524;2024-02-28T07:23:17;102764.31;;;1.49;64.34
69566;BME280;56777;55.930;37.524;2024-02-28T07:25:43;102719.13;;;1.64;62.07
69566;BME280;56777;55.930;37.524;2024-02-28T07:28:08;102762.53;;;1.58;62.07
69566;BME280;56777;55.930;37.524;2024-02-28T07:30:34;102764.28;;;1.98;61.94
69566;BME280;56777;55.930;37.524;2024-02-28T07:33:00;102763.38;;;1.48;63.04
69566;BME280;56777;55.930;37.524;2024-02-28T07:35:26;102771.53;;;1.53;62.76
69566;BME280;56777;55.930;37.524;2024-02-28T07:37:52;102758.06;;;1.37;63.68
69566;BME280;56777;55.930;37.524;2024-02-28T07:40:17;102712.34;;;1.46;63.04
69566;BME280;56777;55.930;37.524;2024-02-28T07:42:43;102750.66;;;1.70;62.66
69566;BME280;56777;55.930;37.524;2024-02-28T07:45:09;102762.94;;;1.73;61.83
69566;BME280;56777;55.930;37.524;2024-02-28T07:47:34;102755.59;;;1.88;61.60
69566;BME280;56777;55.930;37.524;2024-02-28T07:50:00;102750.28;;;1.76;62.12
69566;BME280;56777;55.930;37.524;2024-02-28T07:52:25;102748.75;;;2.29;60.92
69566;BME280;56777;55.930;37.524;2024-02-28T07:54:51;102747.53;;;1.74;61.27
69566;BME280;56777;55.930;37.524;2024-02-28T07:57:17;102753.78;;;2.48;60.34
69566;BME280;56777;55.930;37.524;2024-02-28T07:59:42;102753.91;;;2.39;60.10
69566;BME280;56777;55.930;37.524;2024-02-28T08:02:08;102760.00;;;2.30;59.90
69566;BME280;56777;55.930;37.524;2024-02-28T08:04:35;102757.69;;;2.33;59.96
69566;BME280;56777;55.930;37.524;2024-02-28T08:07:01;102754.84;;;2.30;59.82
69566;BME280;56777;55.930;37.524;2024-02-28T08:09:26;102757.66;;;2.53;59.16
69566;BME280;56777;55.930;37.524;2024-02-28T08:11:52;102744.91;;;2.87;59.09
69566;BME280;56777;55.930;37.524;2024-02-28T08:14:17;102703.06;;;2.50;58.08
69566;BME280;56777;55.930;37.524;2024-02-28T08:16:43;102743.69;;;2.31;58.91
69566;BME280;56777;55.930;37.524;2024-02-28T08:19:09;102746.84;;;2.89;57.86
69566;BME280;56777;55.930;37.524;2024-02-28T08:21:35;102764.09;;;2.68;57.65
69566;BME280;56777;55.930;37.524;2024-02-28T08:24:00;102715.94;;;2.60;57.52
69566;BME280;56777;55.930;37.524;2024-02-28T08:26:30;102758.91;;;2.79;57.49
69566;BME280;56777;55.930;37.524;2024-02-28T08:28:55;102756.50;;;3.02;57.49
69566;BME280;56777;55.930;37.524;2024-02-28T08:31:21;102758.00;;;3.21;56.95
69566;BME280;56777;55.930;37.524;2024-02-28T08:33:47;102751.66;;;3.39;55.83
69566;BME280;56777;55.930;37.524;2024-02-28T08:36:12;102746.94;;;3.23;55.94
69566;BME280;56777;55.930;37.524;2024-02-28T08:38:38;102744.31;;;3.01;56.09
69566;BME280;56777;55.930;37.524;2024-02-28T08:41:04;102739.91;;;3.54;55.61
69566;BME280;56777;55.930;37.524;2024-02-28T08:43:30;102731.00;;;3.73;55.60
69566;BME280;56777;55.930;37.524;2024-02-28T08:45:56;102750.97;;;3.86;54.63
69566;BME280;56777;55.930;37.524;2024-02-28T08:48:22;102742.81;;;3.47;54.73
69566;BME280;56777;55.930;37.524;2024-02-28T08:50:48;102739.44;;;3.48;55.05
69566;BME280;56777;55.930;37.524;2024-02-28T08:53:14;102737.69;;;3.37;54.75
69566;BME280;56777;55.930;37.524;2024-02-28T08:55:39;102745.53;;;3.71;54.32
69566;BME280;56777;55.930;37.524;2024-02-28T08:58:05;102751.25;;;3.67;54.67
69566;BME280;56777;55.930;37.524;2024-02-28T09:00:30;102722.13;;;3.81;53.33
69566;BME280;56777;55.930;37.524;2024-02-28T09:02:56;102732.63;;;3.94;53.40
69566;BME280;56777;55.930;37.524;2024-02-28T09:05:23;102734.84;;;4.12;52.14
69566;BME280;56777;55.930;37.524;2024-02-28T09:07:49;102729.38;;;4.42;52.47
69566;BME280;56777;55.930;37.524;2024-02-28T09:10:17;102714.91;;;4.22;51.52
69566;BME280;56777;55.930;37.524;2024-02-28T09:12:48;102715.59;;;4.43;50.50
69566;BME280;56777;55.930;37.524;2024-02-28T09:15:14;102717.63;;;4.36;50.08
69566;BME280;56777;55.930;37.524;2024-02-28T09:17:40;102707.03;;;4.44;50.79
69566;BME280;56777;55.930;37.524;2024-02-28T09:20:06;102722.16;;;4.50;51.14
69566;BME280;56777;55.930;37.524;2024-02-28T09:22:33;102717.06;;;4.51;50.32
69566;BME280;56777;55.930;37.524;2024-02-28T09:25:00;102709.31;;;4.75;48.63
69566;BME280;56777;55.930;37.524;2024-02-28T09:27:29;102692.81;;;4.63;47.64
69566;BME280;56777;55.930;37.524;2024-02-28T09:29:54;102700.69;;;4.88;46.73
69566;BME280;56777;55.930;37.524;2024-02-28T09:32:20;102692.28;;;5.27;46.22
69566;BME280;56777;55.930;37.524;2024-02-28T09:34:45;102692.28;;;5.27;45.61
69566;BME280;56777;55.930;37.524;2024-02-28T09:37:11;102689.38;;;5.11;45.08
69566;BME280;56777;55.930;37.524;2024-02-28T09:39:40;102685.50;;;5.17;45.15
69566;BME280;56777;55.930;37.524;2024-02-28T09:42:06;102704.47;;;5.28;46.03
69566;BME280;56777;55.930;37.524;2024-02-28T09:44:34;102703.44;;;5.26;46.59
69566;BME280;56777;55.930;37.524;2024-02-28T09:47:00;102690.06;;;5.70;46.66
69566;BME280;56777;55.930;37.524;2024-02-28T09:49:26;102686.50;;;5.56;46.35
69566;BME280;56777;55.930;37.524;2024-02-28T09:51:52;102689.91;;;6.05;45.53
69566;BME280;56777;55.930;37.524;2024-02-28T09:54:18;102688.53;;;5.85;44.31
69566;BME280;56777;55.930;37.524;2024-02-28T09:56:44;102663.31;;;5.59;44.46
69566;BME280;56777;55.930;37.524;2024-02-28T09:59:11;102669.28;;;5.70;43.96
69566;BME280;56777;55.930;37.524;2024-02-28T10:01:42;102671.91;;;5.83;40.75
69566;BME280;56777;55.930;37.524;2024-02-28T10:04:12;102662.03;;;5.91;39.46
69566;BME280;56777;55.930;37.524;2024-02-28T10:06:42;102656.25;;;5.70;38.79
69566;BME280;56777;55.930;37.524;2024-02-28T10:09:07;102636.50;;;5.60;38.67
69566;BME280;56777;55.930;37.524;2024-02-28T10:11:33;102640.47;;;6.05;39.01
69566;BME280;56777;55.930;37.524;2024-02-28T10:14:01;102635.66;;;5.98;38.69
69566;BME280;56777;55.930;37.524;2024-02-28T10:16:27;102647.19;;;6.15;40.17
69566;BME280;56777;55.930;37.524;2024-02-28T10:18:53;102631.56;;;6.02;39.91
69566;BME280;56777;55.930;37.524;2024-02-28T10:21:19;102635.69;;;6.25;39.21
69566;BME280;56777;55.930;37.524;2024-02-28T10:23:45;102652.66;;;5.93;38.40
69566;BME280;56777;55.930;37.524;2024-02-28T10:26:11;102654.16;;;6.03;38.63
69566;BME280;56777;55.930;37.524;2024-02-28T10:28:38;102642.50;;;6.09;38.24
69566;BME280;56777;55.930;37.524;2024-02-28T10:31:05;102624.88;;;6.45;38.04
69566;BME280;56777;55.930;37.524;2024-02-28T10:33:32;102621.56;;;6.21;36.79
69566;BME280;56777;55.930;37.524;2024-02-28T10:35:59;102633.97;;;6.12;36.77
69566;BME280;56777;55.930;37.524;2024-02-28T10:38:26;102640.91;;;6.25;36.75
69566;BME280;56777;55.930;37.524;2024-02-28T10:40:53;102643.00;;;5.92;37.11
69566;BME280;56777;55.930;37.524;2024-02-28T10:43:19;102635.38;;;6.20;36.78
69566;BME280;56777;55.930;37.524;2024-02-28T10:45:45;102603.06;;;6.30;36.80
69566;BME280;56777;55.930;37.524;2024-02-28T10:48:14;102547.88;;;5.96;35.90
69566;BME280;56777;55.930;37.524;2024-02-28T10:50:40;102614.97;;;6.13;36.24
69566;BME280;56777;55.930;37.524;2024-02-28T10:53:13;102598.94;;;6.34;36.39
69566;BME280;56777;55.930;37.524;2024-02-28T10:55:42;102615.66;;;6.50;35.98
69566;BME280;56777;55.930;37.524;2024-02-28T10:58:11;102614.78;;;6.50;35.88
69566;BME280;56777;55.930;37.524;2024-02-28T11:00:39;102592.72;;;6.45;35.62
69566;BME280;56777;55.930;37.524;2024-02-28T11:03:07;102602.78;;;6.80;36.05
69566;BME280;56777;55.930;37.524;2024-02-28T11:05:40;102607.63;;;6.74;36.05
69566;BME280;56777;55.930;37.524;2024-02-28T11:08:19;102594.91;;;6.65;36.54
69566;BME280;56777;55.930;37.524;2024-02-28T11:10:45;102568.09;;;6.53;36.00
69566;BME280;56777;55.930;37.524;2024-02-28T11:13:24;102570.50;;;6.50;35.29
69566;BME280;56777;55.930;37.524;2024-02-28T11:15:51;102550.63;;;6.52;35.33
69566;BME280;56777;55.930;37.524;2024-02-28T11:18:17;102585.97;;;6.75;35.11
69566;BME280;56777;55.930;37.524;2024-02-28T11:20:43;102589.25;;;6.86;34.49
69566;BME280;56777;55.930;37.524;2024-02-28T11:23:10;102577.38;;;7.04;33.73
69566;BME280;56777;55.930;37.524;2024-02-28T11:25:35;102580.00;;;7.04;33.62
69566;BME280;56777;55.930;37.524;2024-02-28T11:28:01;102563.16;;;7.27;33.86
69566;BME280;56777;55.930;37.524;2024-02-28T11:30:26;102540.56;;;7.13;33.86
69566;BME280;56777;55.930;37.524;2024-02-28T11:32:53;102553.81;;;7.03;33.17
69566;BME280;56777;55.930;37.524;2024-02-28T11:35:19;102542.25;;;6.84;33.52
69566;BME280;56777;55.930;37.524;2024-02-28T11:37:45;102551.41;;;7.06;33.62
69566;BME280;56777;55.930;37.524;2024-02-28T11:40:12;102541.63;;;7.16;33.09
69566;BME280;56777;55.930;37.524;2024-02-28T11:42:38;102545.16;;;7.32;32.58
69566;BME280;56777;55.930;37.524;2024-02-28T11:45:10;102553.22;;;7.64;33.08
69566;BME280;56777;55.930;37.524;2024-02-28T11:47:36;102555.66;;;7.18;32.76
69566;BME280;56777;55.930;37.524;2024-02-28T11:50:02;102561.22;;;7.67;32.54
69566;BME280;56777;55.930;37.524;2024-02-28T11:52:31;102572.84;;;7.73;33.50
69566;BME280;56777;55.930;37.524;2024-02-28T11:54:57;102557.13;;;8.17;32.46
69566;BME280;56777;55.930;37.524;2024-02-28T11:57:22;102558.25;;;7.61;31.69
69566;BME280;56777;55.930;37.524;2024-02-28T11:59:48;102537.03;;;7.70;31.72
69566;BME280;56777;55.930;37.524;2024-02-28T12:02:15;102558.53;;;8.73;30.77
69566;BME280;56777;55.930;37.524;2024-02-28T12:04:45;102555.53;;;7.75;31.17
69566;BME280;56777;55.930;37.524;2024-02-28T12:07:11;102547.31;;;7.98;31.74
69566;BME280;56777;55.930;37.524;2024-02-28T12:09:37;102563.78;;;7.38;32.13
69566;BME280;56777;55.930;37.524;2024-02-28T12:12:04;102545.34;;;7.35;32.40
69566;BME280;56777;55.930;37.524;2024-02-28T12:14:36;102556.78;;;7.37;33.41
69566;BME280;56777;55.930;37.524;2024-02-28T12:17:04;102538.97;;;7.44;33.94
69566;BME280;56777;55.930;37.524;2024-02-28T12:19:29;102547.53;;;7.42;34.08
69566;BME280;56777;55.930;37.524;2024-02-28T12:21:55;102548.22;;;7.25;32.69
69566;BME280;56777;55.930;37.524;2024-02-28T12:24:20;102544.56;;;7.08;32.42
69566;BME280;56777;55.930;37.524;2024-02-28T12:26:46;102532.66;;;6.98;32.41
69566;BME280;56777;55.930;37.524;2024-02-28T12:29:12;102536.78;;;7.22;32.34
69566;BME280;56777;55.930;37.524;2024-02-28T12:31:38;102543.16;;;7.13;32.83
69566;BME280;56777;55.930;37.524;2024-02-28T12:34:04;102546.03;;;7.17;33.11
69566;BME280;56777;55.930;37.524;2024-02-28T12:36:30;102554.63;;;7.30;32.91
69566;BME280;56777;55.930;37.524;2024-02-28T12:38:56;102556.22;;;7.28;33.73